Lena, Illinois
Current Conditions -  °F | °C
As of 6:35 PM on Sunday 25 Jan 2015 (Local Time) from KFEP Reporting Station
Clear Clear  
Wind Chill: 11°   Ceiling: Unl
Heat Index: 21°   Visibility: 10mi
Dew Point: 14°   Wind: 8mph
Humidity: 77%   Direction: 360°N
Pressure: 30.02"   Gusts: NA
Location:  42.38°N, 89.82°W
Report Text: KFEP 260035Z AUTO 36007KT 10SM CLR M06/M10 A3002 RMK AO2 T10631098
Loading
Personal Weather Stations






























Interactive Weather Map New forecast layout! Learn more

10-Day Weather Forecast

Advertisements
Track Severe Weather on mobile